sensor_id;sensor_type;location;lat;lon;timestamp;P1;durP1;ratioP1;P2;durP2;ratioP2
25915;SDS011;13719;48.188;11.618;2023-12-07T00:01:57;7.05;;;4.57;;
25915;SDS011;13719;48.188;11.618;2023-12-07T00:04:27;8.82;;;4.97;;
25915;SDS011;13719;48.188;11.618;2023-12-07T00:06:55;6.93;;;4.82;;
25915;SDS011;13719;48.188;11.618;2023-12-07T00:09:24;9.30;;;4.80;;
25915;SDS011;13719;48.188;11.618;2023-12-07T00:11:52;7.38;;;4.82;;
25915;SDS011;13719;48.188;11.618;2023-12-07T00:14:21;13.32;;;5.15;;
25915;SDS011;13719;48.188;11.618;2023-12-07T00:16:49;7.82;;;4.38;;
25915;SDS011;13719;48.188;11.618;2023-12-07T00:19:17;10.38;;;5.28;;
25915;SDS011;13719;48.188;11.618;2023-12-07T00:21:47;8.43;;;4.95;;
25915;SDS011;13719;48.188;11.618;2023-12-07T00:24:16;6.70;;;4.22;;
25915;SDS011;13719;48.188;11.618;2023-12-07T00:26:44;7.85;;;4.45;;
25915;SDS011;13719;48.188;11.618;2023-12-07T00:29:12;10.82;;;5.15;;
25915;SDS011;13719;48.188;11.618;2023-12-07T00:31:41;12.98;;;6.10;;
25915;SDS011;13719;48.188;11.618;2023-12-07T00:34:10;7.93;;;5.07;;
25915;SDS011;13719;48.188;11.618;2023-12-07T00:36:38;7.72;;;4.95;;
25915;SDS011;13719;48.188;11.618;2023-12-07T00:39:09;8.90;;;5.35;;
25915;SDS011;13719;48.188;11.618;2023-12-07T00:41:38;8.13;;;5.28;;
25915;SDS011;13719;48.188;11.618;2023-12-07T00:44:07;8.65;;;5.60;;
25915;SDS011;13719;48.188;11.618;2023-12-07T00:46:35;9.32;;;5.50;;
25915;SDS011;13719;48.188;11.618;2023-12-07T00:49:03;7.82;;;5.15;;
25915;SDS011;13719;48.188;11.618;2023-12-07T00:51:32;9.40;;;5.70;;
25915;SDS011;13719;48.188;11.618;2023-12-07T00:54:00;9.52;;;5.35;;
25915;SDS011;13719;48.188;11.618;2023-12-07T00:56:30;10.70;;;5.70;;
25915;SDS011;13719;48.188;11.618;2023-12-07T00:59:13;7.72;;;5.05;;
25915;SDS011;13719;48.188;11.618;2023-12-07T01:01:41;8.15;;;5.05;;
25915;SDS011;13719;48.188;11.618;2023-12-07T01:04:09;7.45;;;5.00;;
25915;SDS011;13719;48.188;11.618;2023-12-07T01:06:38;9.00;;;5.50;;
25915;SDS011;13719;48.188;11.618;2023-12-07T01:09:06;8.38;;;5.35;;
25915;SDS011;13719;48.188;11.618;2023-12-07T01:11:40;9.07;;;5.10;;
25915;SDS011;13719;48.188;11.618;2023-12-07T01:14:09;10.07;;;5.40;;
25915;SDS011;13719;48.188;11.618;2023-12-07T01:16:38;10.77;;;5.03;;
25915;SDS011;13719;48.188;11.618;2023-12-07T01:19:06;8.98;;;5.10;;
25915;SDS011;13719;48.188;11.618;2023-12-07T01:21:35;9.45;;;5.35;;
25915;SDS011;13719;48.188;11.618;2023-12-07T01:24:03;11.48;;;4.95;;
25915;SDS011;13719;48.188;11.618;2023-12-07T01:26:42;9.27;;;5.43;;
25915;SDS011;13719;48.188;11.618;2023-12-07T01:29:11;7.50;;;5.07;;
25915;SDS011;13719;48.188;11.618;2023-12-07T01:31:40;10.30;;;5.70;;
25915;SDS011;13719;48.188;11.618;2023-12-07T01:34:08;12.70;;;5.95;;
25915;SDS011;13719;48.188;11.618;2023-12-07T01:36:37;8.85;;;5.53;;
25915;SDS011;13719;48.188;11.618;2023-12-07T01:39:05;9.13;;;5.50;;
25915;SDS011;13719;48.188;11.618;2023-12-07T01:41:34;10.20;;;6.28;;
25915;SDS011;13719;48.188;11.618;2023-12-07T01:44:04;8.95;;;5.80;;
25915;SDS011;13719;48.188;11.618;2023-12-07T01:46:32;8.70;;;5.70;;
25915;SDS011;13719;48.188;11.618;2023-12-07T01:49:01;11.68;;;6.32;;
25915;SDS011;13719;48.188;11.618;2023-12-07T01:51:30;10.15;;;5.90;;
25915;SDS011;13719;48.188;11.618;2023-12-07T01:53:59;7.80;;;5.38;;
25915;SDS011;13719;48.188;11.618;2023-12-07T01:56:27;9.82;;;6.05;;
25915;SDS011;13719;48.188;11.618;2023-12-07T01:58:56;8.23;;;5.45;;
25915;SDS011;13719;48.188;11.618;2023-12-07T02:01:26;8.95;;;5.30;;
25915;SDS011;13719;48.188;11.618;2023-12-07T02:03:55;10.40;;;6.00;;
25915;SDS011;13719;48.188;11.618;2023-12-07T02:06:23;11.05;;;5.85;;
25915;SDS011;13719;48.188;11.618;2023-12-07T02:08:52;8.23;;;5.10;;
25915;SDS011;13719;48.188;11.618;2023-12-07T02:11:22;9.18;;;5.78;;
25915;SDS011;13719;48.188;11.618;2023-12-07T02:13:50;10.50;;;6.25;;
25915;SDS011;13719;48.188;11.618;2023-12-07T02:16:23;11.95;;;6.25;;
25915;SDS011;13719;48.188;11.618;2023-12-07T02:18:54;9.77;;;5.85;;
25915;SDS011;13719;48.188;11.618;2023-12-07T02:21:28;10.77;;;6.25;;
25915;SDS011;13719;48.188;11.618;2023-12-07T02:23:58;10.02;;;6.38;;
25915;SDS011;13719;48.188;11.618;2023-12-07T02:26:31;10.40;;;6.10;;
25915;SDS011;13719;48.188;11.618;2023-12-07T02:28:59;8.95;;;5.80;;
25915;SDS011;13719;48.188;11.618;2023-12-07T02:31:28;11.13;;;6.32;;
25915;SDS011;13719;48.188;11.618;2023-12-07T02:33:57;13.60;;;6.55;;
25915;SDS011;13719;48.188;11.618;2023-12-07T02:36:27;9.25;;;5.93;;
25915;SDS011;13719;48.188;11.618;2023-12-07T02:38:56;12.73;;;5.65;;
25915;SDS011;13719;48.188;11.618;2023-12-07T02:41:25;8.88;;;6.28;;
25915;SDS011;13719;48.188;11.618;2023-12-07T02:43:55;11.73;;;5.95;;
25915;SDS011;13719;48.188;11.618;2023-12-07T02:46:24;7.20;;;5.22;;
25915;SDS011;13719;48.188;11.618;2023-12-07T02:48:53;9.82;;;6.28;;
25915;SDS011;13719;48.188;11.618;2023-12-07T02:51:21;9.55;;;6.13;;
25915;SDS011;13719;48.188;11.618;2023-12-07T02:53:50;11.23;;;5.88;;
25915;SDS011;13719;48.188;11.618;2023-12-07T02:56:18;8.55;;;5.25;;
25915;SDS011;13719;48.188;11.618;2023-12-07T02:58:46;9.57;;;5.63;;
25915;SDS011;13719;48.188;11.618;2023-12-07T03:01:16;10.18;;;6.20;;
25915;SDS011;13719;48.188;11.618;2023-12-07T03:03:45;7.97;;;5.60;;
25915;SDS011;13719;48.188;11.618;2023-12-07T03:06:13;9.13;;;5.40;;
25915;SDS011;13719;48.188;11.618;2023-12-07T03:08:43;10.57;;;5.95;;
25915;SDS011;13719;48.188;11.618;2023-12-07T03:11:12;10.07;;;6.03;;
25915;SDS011;13719;48.188;11.618;2023-12-07T03:13:40;12.95;;;6.18;;
25915;SDS011;13719;48.188;11.618;2023-12-07T03:16:08;9.98;;;6.15;;
25915;SDS011;13719;48.188;11.618;2023-12-07T03:18:38;9.75;;;5.82;;
25915;SDS011;13719;48.188;11.618;2023-12-07T03:21:07;11.00;;;5.75;;
25915;SDS011;13719;48.188;11.618;2023-12-07T03:23:35;8.10;;;5.03;;
25915;SDS011;13719;48.188;11.618;2023-12-07T03:26:04;8.85;;;5.38;;
25915;SDS011;13719;48.188;11.618;2023-12-07T03:28:32;10.63;;;5.85;;
25915;SDS011;13719;48.188;11.618;2023-12-07T03:31:00;10.68;;;5.72;;
25915;SDS011;13719;48.188;11.618;2023-12-07T03:33:29;10.15;;;5.50;;
25915;SDS011;13719;48.188;11.618;2023-12-07T03:35:59;12.40;;;5.00;;
25915;SDS011;13719;48.188;11.618;2023-12-07T03:38:27;8.98;;;5.18;;
25915;SDS011;13719;48.188;11.618;2023-12-07T03:40:55;8.85;;;5.07;;
25915;SDS011;13719;48.188;11.618;2023-12-07T03:43:24;12.43;;;6.43;;
25915;SDS011;13719;48.188;11.618;2023-12-07T03:45:52;8.88;;;5.38;;
25915;SDS011;13719;48.188;11.618;2023-12-07T03:48:21;7.93;;;4.95;;
25915;SDS011;13719;48.188;11.618;2023-12-07T03:50:49;8.98;;;4.90;;
25915;SDS011;13719;48.188;11.618;2023-12-07T03:53:19;8.55;;;5.50;;
25915;SDS011;13719;48.188;11.618;2023-12-07T03:55:47;11.10;;;6.38;;
25915;SDS011;13719;48.188;11.618;2023-12-07T03:58:15;7.60;;;5.13;;
25915;SDS011;13719;48.188;11.618;2023-12-07T04:00:44;9.13;;;5.38;;
25915;SDS011;13719;48.188;11.618;2023-12-07T04:03:13;9.10;;;5.75;;
25915;SDS011;13719;48.188;11.618;2023-12-07T04:05:41;9.98;;;5.25;;
25915;SDS011;13719;48.188;11.618;2023-12-07T04:08:10;9.27;;;5.40;;
25915;SDS011;13719;48.188;11.618;2023-12-07T04:10:40;8.43;;;5.18;;
25915;SDS011;13719;48.188;11.618;2023-12-07T04:13:08;9.07;;;5.45;;
25915;SDS011;13719;48.188;11.618;2023-12-07T04:15:37;9.45;;;5.40;;
25915;SDS011;13719;48.188;11.618;2023-12-07T04:18:05;7.38;;;5.05;;
25915;SDS011;13719;48.188;11.618;2023-12-07T04:20:34;7.53;;;5.28;;
25915;SDS011;13719;48.188;11.618;2023-12-07T04:23:02;8.32;;;5.10;;
25915;SDS011;13719;48.188;11.618;2023-12-07T04:25:30;8.32;;;5.28;;
25915;SDS011;13719;48.188;11.618;2023-12-07T04:28:00;8.95;;;4.93;;
25915;SDS011;13719;48.188;11.618;2023-12-07T04:30:28;7.93;;;4.97;;
25915;SDS011;13719;48.188;11.618;2023-12-07T04:32:57;8.55;;;4.97;;
25915;SDS011;13719;48.188;11.618;2023-12-07T04:35:25;11.40;;;5.70;;
25915;SDS011;13719;48.188;11.618;2023-12-07T04:37:54;7.57;;;4.68;;
25915;SDS011;13719;48.188;11.618;2023-12-07T04:40:23;9.00;;;4.55;;
25915;SDS011;13719;48.188;11.618;2023-12-07T04:42:52;7.32;;;4.85;;
25915;SDS011;13719;48.188;11.618;2023-12-07T04:45:22;8.73;;;5.28;;
25915;SDS011;13719;48.188;11.618;2023-12-07T04:47:50;8.40;;;5.30;;
25915;SDS011;13719;48.188;11.618;2023-12-07T04:50:18;9.30;;;5.03;;
25915;SDS011;13719;48.188;11.618;2023-12-07T04:52:47;8.23;;;4.47;;
25915;SDS011;13719;48.188;11.618;2023-12-07T04:55:14;8.23;;;4.80;;
25915;SDS011;13719;48.188;11.618;2023-12-07T04:57:43;7.47;;;4.82;;
25915;SDS011;13719;48.188;11.618;2023-12-07T05:00:13;8.82;;;4.75;;
25915;SDS011;13719;48.188;11.618;2023-12-07T05:02:42;9.20;;;4.82;;
25915;SDS011;13719;48.188;11.618;2023-12-07T05:05:11;11.45;;;4.78;;
25915;SDS011;13719;48.188;11.618;2023-12-07T05:07:40;7.28;;;4.50;;
25915;SDS011;13719;48.188;11.618;2023-12-07T05:10:09;9.75;;;4.45;;
25915;SDS011;13719;48.188;11.618;2023-12-07T05:12:37;9.10;;;5.07;;
25915;SDS011;13719;48.188;11.618;2023-12-07T05:15:06;8.45;;;4.80;;
25915;SDS011;13719;48.188;11.618;2023-12-07T05:17:35;9.07;;;4.97;;
25915;SDS011;13719;48.188;11.618;2023-12-07T05:20:06;7.63;;;4.70;;
25915;SDS011;13719;48.188;11.618;2023-12-07T05:22:34;7.93;;;5.03;;
25915;SDS011;13719;48.188;11.618;2023-12-07T05:25:03;7.35;;;4.50;;
25915;SDS011;13719;48.188;11.618;2023-12-07T05:27:31;8.90;;;4.68;;
25915;SDS011;13719;48.188;11.618;2023-12-07T05:30:00;8.93;;;5.32;;
25915;SDS011;13719;48.188;11.618;2023-12-07T05:32:28;10.57;;;5.38;;
25915;SDS011;13719;48.188;11.618;2023-12-07T05:34:56;9.77;;;4.97;;
25915;SDS011;13719;48.188;11.618;2023-12-07T05:37:26;8.55;;;4.63;;
25915;SDS011;13719;48.188;11.618;2023-12-07T05:39:55;9.75;;;5.70;;
25915;SDS011;13719;48.188;11.618;2023-12-07T05:42:24;9.05;;;4.55;;
25915;SDS011;13719;48.188;11.618;2023-12-07T05:44:52;13.20;;;5.30;;
25915;SDS011;13719;48.188;11.618;2023-12-07T05:47:20;8.38;;;5.25;;
25915;SDS011;13719;48.188;11.618;2023-12-07T05:49:49;11.07;;;4.82;;
25915;SDS011;13719;48.188;11.618;2023-12-07T05:52:18;6.88;;;4.22;;
25915;SDS011;13719;48.188;11.618;2023-12-07T05:54:48;11.70;;;5.15;;
25915;SDS011;13719;48.188;11.618;2023-12-07T05:57:16;8.15;;;4.88;;
25915;SDS011;13719;48.188;11.618;2023-12-07T05:59:44;8.40;;;4.97;;
25915;SDS011;13719;48.188;11.618;2023-12-07T06:02:13;7.63;;;4.63;;
25915;SDS011;13719;48.188;11.618;2023-12-07T06:04:41;9.27;;;4.72;;
25915;SDS011;13719;48.188;11.618;2023-12-07T06:07:10;10.57;;;5.05;;
25915;SDS011;13719;48.188;11.618;2023-12-07T06:09:39;8.77;;;5.05;;
25915;SDS011;13719;48.188;11.618;2023-12-07T06:12:10;7.55;;;4.88;;
25915;SDS011;13719;48.188;11.618;2023-12-07T06:14:38;8.55;;;4.68;;
25915;SDS011;13719;48.188;11.618;2023-12-07T06:17:06;7.45;;;4.50;;
25915;SDS011;13719;48.188;11.618;2023-12-07T06:19:35;9.75;;;4.70;;
25915;SDS011;13719;48.188;11.618;2023-12-07T06:22:03;9.32;;;4.85;;
25915;SDS011;13719;48.188;11.618;2023-12-07T06:24:32;9.90;;;5.05;;
25915;SDS011;13719;48.188;11.618;2023-12-07T06:27:01;7.07;;;4.25;;
25915;SDS011;13719;48.188;11.618;2023-12-07T06:29:32;10.60;;;4.57;;
25915;SDS011;13719;48.188;11.618;2023-12-07T06:32:00;7.10;;;4.53;;
25915;SDS011;13719;48.188;11.618;2023-12-07T06:34:29;7.93;;;4.28;;
25915;SDS011;13719;48.188;11.618;2023-12-07T06:36:58;5.10;;;3.67;;
25915;SDS011;13719;48.188;11.618;2023-12-07T06:39:27;8.30;;;4.40;;
25915;SDS011;13719;48.188;11.618;2023-12-07T06:41:55;5.68;;;3.75;;
25915;SDS011;13719;48.188;11.618;2023-12-07T06:44:26;5.40;;;3.63;;
25915;SDS011;13719;48.188;11.618;2023-12-07T06:46:56;6.93;;;4.68;;
25915;SDS011;13719;48.188;11.618;2023-12-07T06:49:24;9.20;;;4.28;;
25915;SDS011;13719;48.188;11.618;2023-12-07T06:52:08;7.85;;;4.13;;
25915;SDS011;13719;48.188;11.618;2023-12-07T06:54:37;9.30;;;3.97;;
25915;SDS011;13719;48.188;11.618;2023-12-07T06:57:05;8.70;;;3.92;;
25915;SDS011;13719;48.188;11.618;2023-12-07T06:59:34;8.27;;;4.20;;
25915;SDS011;13719;48.188;11.618;2023-12-07T07:02:04;7.65;;;4.07;;
25915;SDS011;13719;48.188;11.618;2023-12-07T07:04:32;8.68;;;3.85;;
25915;SDS011;13719;48.188;11.618;2023-12-07T07:07:00;7.82;;;4.00;;
25915;SDS011;13719;48.188;11.618;2023-12-07T07:09:29;7.15;;;4.03;;
25915;SDS011;13719;48.188;11.618;2023-12-07T07:11:57;8.00;;;4.40;;
25915;SDS011;13719;48.188;11.618;2023-12-07T07:14:26;7.47;;;4.05;;
25915;SDS011;13719;48.188;11.618;2023-12-07T07:16:55;8.95;;;4.10;;
25915;SDS011;13719;48.188;11.618;2023-12-07T07:19:25;7.28;;;3.90;;
25915;SDS011;13719;48.188;11.618;2023-12-07T07:21:53;7.25;;;4.07;;
25915;SDS011;13719;48.188;11.618;2023-12-07T07:24:22;11.10;;;3.95;;
25915;SDS011;13719;48.188;11.618;2023-12-07T07:26:50;6.95;;;4.13;;
25915;SDS011;13719;48.188;11.618;2023-12-07T07:29:18;7.35;;;5.00;;
25915;SDS011;13719;48.188;11.618;2023-12-07T07:31:47;8.23;;;3.97;;
25915;SDS011;13719;48.188;11.618;2023-12-07T07:34:16;7.30;;;3.95;;
25915;SDS011;13719;48.188;11.618;2023-12-07T07:36:46;5.93;;;3.67;;
25915;SDS011;13719;48.188;11.618;2023-12-07T07:39:16;6.70;;;4.25;;
25915;SDS011;13719;48.188;11.618;2023-12-07T07:41:44;6.70;;;4.13;;
25915;SDS011;13719;48.188;11.618;2023-12-07T07:44:13;9.30;;;5.18;;
25915;SDS011;13719;48.188;11.618;2023-12-07T07:46:41;5.65;;;3.88;;
25915;SDS011;13719;48.188;11.618;2023-12-07T07:49:10;6.55;;;4.03;;
25915;SDS011;13719;48.188;11.618;2023-12-07T07:51:38;8.93;;;5.05;;
25915;SDS011;13719;48.188;11.618;2023-12-07T07:54:08;4.50;;;3.58;;
25915;SDS011;13719;48.188;11.618;2023-12-07T07:56:36;6.88;;;4.18;;
25915;SDS011;13719;48.188;11.618;2023-12-07T07:59:05;8.38;;;4.55;;
25915;SDS011;13719;48.188;11.618;2023-12-07T08:01:33;6.80;;;4.00;;
25915;SDS011;13719;48.188;11.618;2023-12-07T08:04:02;4.72;;;3.25;;
25915;SDS011;13719;48.188;11.618;2023-12-07T08:06:30;9.45;;;4.78;;
25915;SDS011;13719;48.188;11.618;2023-12-07T08:09:02;6.72;;;4.18;;
25915;SDS011;13719;48.188;11.618;2023-12-07T08:11:32;8.40;;;4.18;;
25915;SDS011;13719;48.188;11.618;2023-12-07T08:14:01;5.65;;;3.88;;
25915;SDS011;13719;48.188;11.618;2023-12-07T08:16:29;7.15;;;4.15;;
25915;SDS011;13719;48.188;11.618;2023-12-07T08:18:58;5.82;;;4.07;;
25915;SDS011;13719;48.188;11.618;2023-12-07T08:21:27;8.15;;;4.65;;
25915;SDS011;13719;48.188;11.618;2023-12-07T08:23:57;6.90;;;3.80;;
25915;SDS011;13719;48.188;11.618;2023-12-07T08:26:25;10.50;;;4.70;;
25915;SDS011;13719;48.188;11.618;2023-12-07T08:28:55;8.82;;;4.25;;
25915;SDS011;13719;48.188;11.618;2023-12-07T08:31:24;10.57;;;5.50;;
25915;SDS011;13719;48.188;11.618;2023-12-07T08:33:52;9.23;;;4.88;;
25915;SDS011;13719;48.188;11.618;2023-12-07T08:36:21;9.07;;;4.85;;
25915;SDS011;13719;48.188;11.618;2023-12-07T08:38:50;7.07;;;4.85;;
25915;SDS011;13719;48.188;11.618;2023-12-07T08:41:19;7.03;;;4.40;;
25915;SDS011;13719;48.188;11.618;2023-12-07T08:43:47;9.35;;;5.10;;
25915;SDS011;13719;48.188;11.618;2023-12-07T08:46:17;9.07;;;4.97;;
25915;SDS011;13719;48.188;11.618;2023-12-07T08:48:46;7.10;;;4.13;;
25915;SDS011;13719;48.188;11.618;2023-12-07T08:51:14;6.95;;;4.65;;
25915;SDS011;13719;48.188;11.618;2023-12-07T08:53:43;7.80;;;4.30;;
25915;SDS011;13719;48.188;11.618;2023-12-07T08:56:14;10.25;;;4.57;;
25915;SDS011;13719;48.188;11.618;2023-12-07T08:58:42;8.90;;;5.35;;
25915;SDS011;13719;48.188;11.618;2023-12-07T09:01:11;8.65;;;4.95;;
25915;SDS011;13719;48.188;11.618;2023-12-07T09:03:58;15.35;;;8.35;;
25915;SDS011;13719;48.188;11.618;2023-12-07T09:06:27;11.15;;;7.05;;
25915;SDS011;13719;48.188;11.618;2023-12-07T09:08:56;10.25;;;7.28;;
25915;SDS011;13719;48.188;11.618;2023-12-07T09:11:25;11.10;;;7.70;;
25915;SDS011;13719;48.188;11.618;2023-12-07T09:13:53;13.57;;;8.70;;
25915;SDS011;13719;48.188;11.618;2023-12-07T09:16:22;9.73;;;6.43;;
25915;SDS011;13719;48.188;11.618;2023-12-07T09:18:50;9.48;;;5.82;;
25915;SDS011;13719;48.188;11.618;2023-12-07T09:21:20;9.80;;;5.90;;
25915;SDS011;13719;48.188;11.618;2023-12-07T09:23:49;9.15;;;4.75;;
25915;SDS011;13719;48.188;11.618;2023-12-07T09:26:18;7.53;;;4.63;;
25915;SDS011;13719;48.188;11.618;2023-12-07T09:28:47;6.13;;;3.75;;
25915;SDS011;13719;48.188;11.618;2023-12-07T09:31:15;5.30;;;3.70;;
25915;SDS011;13719;48.188;11.618;2023-12-07T09:33:44;5.72;;;3.70;;
25915;SDS011;13719;48.188;11.618;2023-12-07T09:36:16;6.38;;;3.72;;
25915;SDS011;13719;48.188;11.618;2023-12-07T09:38:49;6.32;;;3.75;;
25915;SDS011;13719;48.188;11.618;2023-12-07T09:41:17;7.20;;;4.53;;
25915;SDS011;13719;48.188;11.618;2023-12-07T09:43:46;4.75;;;3.28;;
25915;SDS011;13719;48.188;11.618;2023-12-07T09:46:15;4.60;;;3.40;;
25915;SDS011;13719;48.188;11.618;2023-12-07T09:48:43;5.30;;;3.47;;
25915;SDS011;13719;48.188;11.618;2023-12-07T09:51:13;6.00;;;3.78;;
25915;SDS011;13719;48.188;11.618;2023-12-07T09:53:43;5.38;;;3.20;;
25915;SDS011;13719;48.188;11.618;2023-12-07T09:56:14;3.80;;;2.80;;
25915;SDS011;13719;48.188;11.618;2023-12-07T09:58:43;4.32;;;2.95;;
25915;SDS011;13719;48.188;11.618;2023-12-07T10:01:11;6.07;;;3.30;;
25915;SDS011;13719;48.188;11.618;2023-12-07T10:03:41;5.70;;;3.45;;
25915;SDS011;13719;48.188;11.618;2023-12-07T10:06:14;3.53;;;2.72;;
25915;SDS011;13719;48.188;11.618;2023-12-07T10:08:42;7.88;;;4.43;;
25915;SDS011;13719;48.188;11.618;2023-12-07T10:11:15;4.40;;;2.90;;
25915;SDS011;13719;48.188;11.618;2023-12-07T10:13:44;4.50;;;3.10;;
25915;SDS011;13719;48.188;11.618;2023-12-07T10:16:14;4.28;;;2.60;;
25915;SDS011;13719;48.188;11.618;2023-12-07T10:18:45;5.45;;;3.15;;
25915;SDS011;13719;48.188;11.618;2023-12-07T10:21:15;4.45;;;2.97;;
25915;SDS011;13719;48.188;11.618;2023-12-07T10:23:44;3.85;;;2.70;;
25915;SDS011;13719;48.188;11.618;2023-12-07T10:26:17;4.00;;;2.78;;
25915;SDS011;13719;48.188;11.618;2023-12-07T10:28:48;4.18;;;3.20;;
25915;SDS011;13719;48.188;11.618;2023-12-07T10:31:20;6.13;;;2.30;;
25915;SDS011;13719;48.188;11.618;2023-12-07T10:33:50;3.60;;;2.55;;
25915;SDS011;13719;48.188;11.618;2023-12-07T10:36:19;4.28;;;2.58;;
25915;SDS011;13719;48.188;11.618;2023-12-07T10:38:47;4.20;;;2.35;;
25915;SDS011;13719;48.188;11.618;2023-12-07T10:41:19;3.60;;;2.47;;
25915;SDS011;13719;48.188;11.618;2023-12-07T10:43:48;3.78;;;2.25;;
25915;SDS011;13719;48.188;11.618;2023-12-07T10:46:17;2.22;;;1.85;;
25915;SDS011;13719;48.188;11.618;2023-12-07T10:48:48;3.00;;;2.22;;
25915;SDS011;13719;48.188;11.618;2023-12-07T10:51:17;2.30;;;1.90;;
25915;SDS011;13719;48.188;11.618;2023-12-07T10:53:50;2.22;;;1.65;;
25915;SDS011;13719;48.188;11.618;2023-12-07T10:56:23;5.38;;;2.20;;
25915;SDS011;13719;48.188;11.618;2023-12-07T10:58:53;3.95;;;2.50;;
25915;SDS011;13719;48.188;11.618;2023-12-07T11:01:23;4.50;;;2.97;;
25915;SDS011;13719;48.188;11.618;2023-12-07T11:03:53;4.50;;;2.67;;
25915;SDS011;13719;48.188;11.618;2023-12-07T11:06:21;5.15;;;3.17;;
25915;SDS011;13719;48.188;11.618;2023-12-07T11:08:51;7.68;;;3.53;;
25915;SDS011;13719;48.188;11.618;2023-12-07T11:11:26;3.15;;;2.47;;
25915;SDS011;13719;48.188;11.618;2023-12-07T11:13:58;4.85;;;3.20;;
25915;SDS011;13719;48.188;11.618;2023-12-07T11:16:29;4.70;;;3.00;;
25915;SDS011;13719;48.188;11.618;2023-12-07T11:18:58;4.80;;;2.72;;
25915;SDS011;13719;48.188;11.618;2023-12-07T11:21:27;2.97;;;2.25;;
25915;SDS011;13719;48.188;11.618;2023-12-07T11:23:55;2.45;;;1.90;;
25915;SDS011;13719;48.188;11.618;2023-12-07T11:26:26;2.78;;;1.80;;
25915;SDS011;13719;48.188;11.618;2023-12-07T11:28:54;2.90;;;1.50;;
25915;SDS011;13719;48.188;11.618;2023-12-07T11:31:23;2.05;;;1.70;;
25915;SDS011;13719;48.188;11.618;2023-12-07T11:33:52;2.60;;;1.80;;
25915;SDS011;13719;48.188;11.618;2023-12-07T11:36:20;1.77;;;1.55;;
25915;SDS011;13719;48.188;11.618;2023-12-07T11:41:49;6.20;;;2.33;;
25915;SDS011;13719;48.188;11.618;2023-12-07T11:44:18;3.42;;;2.55;;
25915;SDS011;13719;48.188;11.618;2023-12-07T11:46:46;2.50;;;2.00;;
25915;SDS011;13719;48.188;11.618;2023-12-07T11:49:15;3.10;;;2.00;;
25915;SDS011;13719;48.188;11.618;2023-12-07T11:51:57;3.42;;;2.20;;
25915;SDS011;13719;48.188;11.618;2023-12-07T11:54:26;2.00;;;1.73;;
25915;SDS011;13719;48.188;11.618;2023-12-07T11:56:56;3.97;;;2.20;;
25915;SDS011;13719;48.188;11.618;2023-12-07T11:59:25;1.73;;;1.60;;
25915;SDS011;13719;48.188;11.618;2023-12-07T12:01:59;3.20;;;1.67;;
25915;SDS011;13719;48.188;11.618;2023-12-07T12:04:29;1.80;;;1.38;;
25915;SDS011;13719;48.188;11.618;2023-12-07T12:06:58;2.10;;;1.52;;
25915;SDS011;13719;48.188;11.618;2023-12-07T12:09:26;3.13;;;1.60;;
25915;SDS011;13719;48.188;11.618;2023-12-07T12:12:00;2.38;;;1.73;;
25915;SDS011;13719;48.188;11.618;2023-12-07T12:14:29;2.08;;;1.52;;
25915;SDS011;13719;48.188;11.618;2023-12-07T12:16:58;2.50;;;1.65;;
25915;SDS011;13719;48.188;11.618;2023-12-07T12:19:26;2.63;;;1.73;;
25915;SDS011;13719;48.188;11.618;2023-12-07T12:22:00;3.65;;;2.28;;
25915;SDS011;13719;48.188;11.618;2023-12-07T12:24:32;6.25;;;2.33;;
25915;SDS011;13719;48.188;11.618;2023-12-07T12:27:03;2.50;;;1.85;;
25915;SDS011;13719;48.188;11.618;2023-12-07T12:29:32;2.65;;;1.88;;
25915;SDS011;13719;48.188;11.618;2023-12-07T12:32:01;2.35;;;1.98;;
25915;SDS011;13719;48.188;11.618;2023-12-07T12:34:32;2.42;;;1.83;;
25915;SDS011;13719;48.188;11.618;2023-12-07T12:37:01;2.10;;;1.90;;
25915;SDS011;13719;48.188;11.618;2023-12-07T12:39:32;2.35;;;1.67;;
25915;SDS011;13719;48.188;11.618;2023-12-07T12:42:03;2.78;;;2.13;;
25915;SDS011;13719;48.188;11.618;2023-12-07T12:44:32;2.88;;;1.90;;
25915;SDS011;13719;48.188;11.618;2023-12-07T12:47:04;2.95;;;1.90;;
25915;SDS011;13719;48.188;11.618;2023-12-07T12:49:35;2.70;;;2.05;;
25915;SDS011;13719;48.188;11.618;2023-12-07T12:52:04;2.60;;;1.90;;
25915;SDS011;13719;48.188;11.618;2023-12-07T12:54:33;2.67;;;1.83;;
25915;SDS011;13719;48.188;11.618;2023-12-07T12:57:03;3.00;;;1.98;;
25915;SDS011;13719;48.188;11.618;2023-12-07T12:59:34;4.20;;;1.92;;
25915;SDS011;13719;48.188;11.618;2023-12-07T13:02:03;5.75;;;2.17;;
25915;SDS011;13719;48.188;11.618;2023-12-07T13:04:32;2.15;;;1.60;;
25915;SDS011;13719;48.188;11.618;2023-12-07T13:07:03;2.17;;;1.90;;
25915;SDS011;13719;48.188;11.618;2023-12-07T13:09:32;3.95;;;2.03;;
25915;SDS011;13719;48.188;11.618;2023-12-07T13:12:00;2.35;;;1.90;;
25915;SDS011;13719;48.188;11.618;2023-12-07T13:14:33;4.00;;;1.80;;
25915;SDS011;13719;48.188;11.618;2023-12-07T13:17:04;3.13;;;2.10;;
25915;SDS011;13719;48.188;11.618;2023-12-07T13:19:34;2.55;;;1.85;;
25915;SDS011;13719;48.188;11.618;2023-12-07T13:22:03;2.58;;;1.80;;
25915;SDS011;13719;48.188;11.618;2023-12-07T13:24:31;2.33;;;1.80;;
25915;SDS011;13719;48.188;11.618;2023-12-07T13:27:00;2.80;;;2.15;;
25915;SDS011;13719;48.188;11.618;2023-12-07T13:29:28;2.60;;;2.00;;
25915;SDS011;13719;48.188;11.618;2023-12-07T13:32:03;4.35;;;2.10;;
25915;SDS011;13719;48.188;11.618;2023-12-07T13:34:32;2.60;;;1.95;;
25915;SDS011;13719;48.188;11.618;2023-12-07T13:37:01;3.35;;;2.17;;
25915;SDS011;13719;48.188;11.618;2023-12-07T13:39:29;2.72;;;2.00;;
25915;SDS011;13719;48.188;11.618;2023-12-07T13:41:58;3.35;;;2.30;;
25915;SDS011;13719;48.188;11.618;2023-12-07T13:44:30;4.50;;;2.20;;
25915;SDS011;13719;48.188;11.618;2023-12-07T13:46:59;2.58;;;2.38;;
25915;SDS011;13719;48.188;11.618;2023-12-07T13:49:29;3.67;;;2.40;;
25915;SDS011;13719;48.188;11.618;2023-12-07T13:52:00;4.00;;;2.70;;
25915;SDS011;13719;48.188;11.618;2023-12-07T13:54:33;4.47;;;2.58;;
25915;SDS011;13719;48.188;11.618;2023-12-07T13:57:05;5.90;;;3.55;;
25915;SDS011;13719;48.188;11.618;2023-12-07T13:59:34;8.15;;;4.22;;
25915;SDS011;13719;48.188;11.618;2023-12-07T14:02:03;13.88;;;8.60;;
25915;SDS011;13719;48.188;11.618;2023-12-07T14:04:33;14.15;;;7.43;;
25915;SDS011;13719;48.188;11.618;2023-12-07T14:07:06;9.93;;;5.60;;
25915;SDS011;13719;48.188;11.618;2023-12-07T14:09:36;7.00;;;5.38;;
25915;SDS011;13719;48.188;11.618;2023-12-07T14:12:19;7.07;;;4.63;;
25915;SDS011;13719;48.188;11.618;2023-12-07T14:14:47;5.30;;;3.70;;
25915;SDS011;13719;48.188;11.618;2023-12-07T14:17:16;5.25;;;3.33;;
25915;SDS011;13719;48.188;11.618;2023-12-07T14:19:48;6.18;;;3.78;;
25915;SDS011;13719;48.188;11.618;2023-12-07T14:22:18;7.60;;;3.50;;
25915;SDS011;13719;48.188;11.618;2023-12-07T14:24:46;4.72;;;3.50;;
25915;SDS011;13719;48.188;11.618;2023-12-07T14:27:15;7.43;;;3.70;;
25915;SDS011;13719;48.188;11.618;2023-12-07T14:29:43;5.00;;;3.25;;
25915;SDS011;13719;48.188;11.618;2023-12-07T14:32:12;8.70;;;4.03;;
25915;SDS011;13719;48.188;11.618;2023-12-07T14:34:41;6.43;;;3.40;;
25915;SDS011;13719;48.188;11.618;2023-12-07T14:37:11;7.72;;;3.97;;
25915;SDS011;13719;48.188;11.618;2023-12-07T14:39:39;7.35;;;3.50;;
25915;SDS011;13719;48.188;11.618;2023-12-07T14:42:08;5.75;;;3.60;;
25915;SDS011;13719;48.188;11.618;2023-12-07T14:44:37;5.28;;;3.60;;
25915;SDS011;13719;48.188;11.618;2023-12-07T14:47:05;4.75;;;3.15;;
25915;SDS011;13719;48.188;11.618;2023-12-07T14:49:34;5.45;;;3.50;;